createdAt,value
2019-05-29T00:00:59.807Z,16.00
2019-05-29T00:03:28.201Z,16.00
2019-05-29T00:05:56.616Z,16.00
2019-05-29T00:08:25.090Z,16.00
2019-05-29T00:10:53.407Z,16.00
2019-05-29T00:13:21.827Z,16.00
2019-05-29T00:15:50.216Z,16.00
2019-05-29T00:18:18.884Z,16.00
2019-05-29T00:20:47.248Z,15.90
2019-05-29T00:23:16.259Z,16.00
2019-05-29T00:25:44.937Z,15.90
2019-05-29T00:28:13.257Z,15.90
2019-05-29T00:30:41.677Z,15.90
2019-05-29T00:33:10.158Z,15.90
2019-05-29T00:35:38.461Z,15.90
2019-05-29T00:38:06.850Z,15.90
2019-05-29T00:40:35.205Z,15.90
2019-05-29T00:43:03.591Z,15.90
2019-05-29T00:45:31.975Z,15.80
2019-05-29T00:48:00.789Z,15.90
2019-05-29T00:50:29.174Z,15.80
2019-05-29T00:52:57.577Z,15.80
2019-05-29T00:55:25.957Z,15.80
2019-05-29T00:57:54.698Z,15.80
2019-05-29T01:00:23.109Z,15.80
2019-05-29T01:02:51.551Z,15.80
2019-05-29T01:05:20.200Z,15.80
2019-05-29T01:07:48.682Z,15.80
2019-05-29T01:10:18.797Z,15.80
2019-05-29T01:12:47.188Z,15.70
2019-05-29T01:15:15.532Z,15.70
2019-05-29T01:17:43.820Z,15.70
2019-05-29T01:20:12.125Z,15.70
2019-05-29T01:22:40.464Z,15.70
2019-05-29T01:25:08.795Z,15.70
2019-05-29T01:27:37.449Z,15.70
2019-05-29T01:30:06.799Z,15.70
2019-05-29T01:32:35.404Z,15.60
2019-05-29T01:35:07.322Z,15.60
2019-05-29T01:37:35.689Z,15.60
2019-05-29T01:40:18.754Z,15.60
2019-05-29T01:42:35.409Z,15.60
2019-05-29T01:45:08.041Z,15.60
2019-05-29T01:47:34.994Z,15.60
2019-05-29T01:50:03.413Z,15.60
2019-05-29T01:52:31.750Z,15.60
2019-05-29T01:55:00.166Z,15.60
2019-05-29T01:57:28.521Z,15.50
2019-05-29T01:59:56.833Z,15.50
2019-05-29T02:02:25.121Z,15.50
2019-05-29T02:04:53.425Z,15.50
2019-05-29T02:07:22.465Z,15.50
2019-05-29T02:09:50.941Z,15.50
2019-05-29T02:12:20.493Z,15.50
2019-05-29T02:14:49.201Z,15.50
2019-05-29T02:17:17.830Z,15.40
2019-05-29T02:19:46.229Z,15.40
2019-05-29T02:22:14.549Z,15.40
2019-05-29T02:24:42.850Z,15.40
2019-05-29T02:27:11.175Z,15.40
2019-05-29T02:29:39.500Z,15.40
2019-05-29T02:32:07.795Z,15.40
2019-05-29T02:34:36.092Z,15.40
2019-05-29T02:37:04.419Z,15.40
2019-05-29T02:39:32.735Z,15.40
2019-05-29T02:42:01.036Z,15.40
2019-05-29T02:44:29.720Z,15.40
2019-05-29T02:46:58.431Z,15.40
2019-05-29T02:49:28.174Z,15.40
2019-05-29T02:51:56.689Z,15.30
2019-05-29T02:54:27.045Z,15.30
2019-05-29T02:56:55.085Z,15.30
2019-05-29T02:59:25.498Z,15.20
2019-05-29T03:01:53.983Z,15.20
2019-05-29T03:04:23.838Z,15.10
2019-05-29T03:06:52.466Z,15.10
2019-05-29T03:09:22.604Z,15.10
2019-05-29T03:11:50.778Z,15.10
2019-05-29T03:14:19.090Z,15.10
2019-05-29T03:16:47.390Z,15.10
2019-05-29T03:19:15.704Z,15.10
2019-05-29T03:21:44.026Z,15.10
2019-05-29T03:24:12.332Z,15.10
2019-05-29T03:26:40.661Z,15.10
2019-05-29T03:29:09.034Z,15.10
2019-05-29T03:31:45.544Z,15.10
2019-05-29T03:34:07.369Z,15.00
2019-05-29T03:36:43.847Z,15.00
2019-05-29T03:39:06.809Z,15.00
2019-05-29T03:41:35.111Z,15.00
2019-05-29T03:44:03.811Z,14.90
2019-05-29T03:46:44.600Z,14.90
2019-05-29T03:49:08.743Z,14.90
2019-05-29T03:51:38.807Z,14.90
2019-05-29T03:54:07.054Z,14.80
2019-05-29T03:56:35.375Z,14.80
2019-05-29T03:59:03.891Z,14.80
2019-05-29T04:01:33.239Z,14.80
2019-05-29T04:04:02.197Z,14.80
2019-05-29T04:06:31.173Z,14.80
2019-05-29T04:08:59.668Z,14.80
2019-05-29T04:11:29.251Z,14.80
2019-05-29T04:13:57.817Z,14.80
2019-05-29T04:16:27.615Z,14.70
2019-05-29T04:18:56.223Z,14.80
2019-05-29T04:21:24.680Z,14.70
2019-05-29T04:23:52.989Z,14.70
2019-05-29T04:26:21.343Z,14.70
2019-05-29T04:28:49.698Z,14.70
2019-05-29T04:31:18.016Z,14.70
2019-05-29T04:33:46.389Z,14.70
2019-05-29T04:36:14.751Z,14.70
2019-05-29T04:38:43.119Z,14.70
2019-05-29T04:41:11.495Z,14.70
2019-05-29T04:43:40.063Z,14.60
2019-05-29T04:46:08.521Z,14.60
2019-05-29T04:48:38.315Z,14.60
2019-05-29T04:51:07.192Z,14.60
2019-05-29T04:53:35.907Z,14.70
2019-05-29T04:56:05.841Z,14.70
2019-05-29T04:58:34.831Z,14.60
2019-05-29T05:01:03.205Z,14.70
2019-05-29T05:03:31.534Z,14.70
2019-05-29T05:05:59.908Z,14.60
2019-05-29T05:08:29.213Z,14.70
2019-05-29T05:10:57.642Z,14.60
2019-05-29T05:13:26.006Z,14.60
2019-05-29T05:15:54.357Z,14.70
2019-05-29T05:21:59.176Z,14.70
2019-05-29T05:24:27.482Z,14.70
2019-05-29T05:26:58.713Z,14.70
2019-05-29T05:29:27.087Z,14.70
2019-05-29T05:31:55.476Z,14.70
2019-05-29T05:34:23.837Z,14.70
2019-05-29T05:36:52.248Z,14.70
2019-05-29T05:39:20.581Z,14.70
2019-05-29T05:41:48.931Z,14.70
2019-05-29T05:44:17.373Z,14.70
2019-05-29T05:46:45.677Z,14.70
2019-05-29T05:49:13.998Z,14.70
2019-05-29T05:51:44.512Z,14.70
2019-05-29T05:54:12.523Z,14.70
2019-05-29T05:56:41.800Z,14.70
2019-05-29T05:59:10.264Z,14.70
2019-05-29T06:01:39.928Z,14.70
2019-05-29T06:04:08.417Z,14.70
2019-05-29T06:06:38.019Z,14.70
2019-05-29T06:09:08.086Z,14.70
2019-05-29T06:11:36.461Z,14.70
2019-05-29T06:14:05.483Z,14.70
2019-05-29T06:16:34.476Z,14.70
2019-05-29T06:19:02.899Z,14.70
2019-05-29T06:21:32.482Z,14.70
2019-05-29T06:24:00.960Z,14.70
2019-05-29T06:26:29.362Z,14.70
2019-05-29T06:28:57.751Z,14.70
2019-05-29T06:31:27.315Z,14.70
2019-05-29T06:33:55.992Z,14.80
2019-05-29T06:36:24.369Z,14.80
2019-05-29T06:38:52.744Z,14.80
2019-05-29T06:41:21.210Z,14.80
2019-05-29T06:43:49.605Z,14.70
2019-05-29T06:46:17.926Z,14.70
2019-05-29T06:48:58.326Z,14.70
2019-05-29T06:51:16.339Z,14.70
2019-05-29T06:53:44.726Z,14.80
2019-05-29T06:56:13.101Z,14.70
2019-05-29T06:58:42.227Z,14.80
2019-05-29T07:01:11.120Z,14.80
2019-05-29T07:03:39.719Z,14.80
2019-05-29T07:06:09.918Z,14.80
2019-05-29T07:08:43.192Z,14.80
2019-05-29T07:11:08.629Z,14.90
2019-05-29T07:13:38.361Z,14.90
2019-05-29T07:16:07.023Z,14.90
2019-05-29T07:18:36.571Z,14.90
2019-05-29T07:21:05.056Z,14.90
2019-05-29T07:23:33.364Z,14.90
2019-05-29T07:26:01.685Z,14.90
2019-05-29T07:28:30.044Z,14.90
2019-05-29T07:31:02.619Z,14.90
2019-05-29T07:33:28.396Z,14.90
2019-05-29T07:35:56.794Z,14.90
2019-05-29T07:38:25.217Z,14.80
2019-05-29T07:40:53.560Z,14.90
2019-05-29T07:43:22.380Z,14.90
2019-05-29T07:45:51.120Z,14.90
2019-05-29T07:48:19.516Z,14.90
2019-05-29T07:50:48.432Z,15.00
2019-05-29T07:53:17.395Z,15.00
2019-05-29T07:55:46.747Z,15.00
2019-05-29T07:58:15.357Z,15.00
2019-05-29T08:01:06.862Z,15.00
2019-05-29T08:03:14.155Z,15.00
2019-05-29T08:05:46.172Z,15.00
2019-05-29T08:08:12.759Z,14.90
2019-05-29T08:10:41.794Z,14.90
2019-05-29T08:13:10.273Z,14.90
2019-05-29T08:15:54.150Z,15.00
2019-05-29T08:18:08.869Z,15.00
2019-05-29T08:20:37.189Z,15.00
2019-05-29T08:23:05.491Z,15.00
2019-05-29T08:25:33.820Z,15.00
2019-05-29T08:28:02.167Z,15.10
2019-05-29T08:30:30.470Z,15.10
2019-05-29T08:32:58.834Z,15.10
2019-05-29T08:35:27.208Z,15.10
2019-05-29T08:37:55.494Z,15.10
2019-05-29T08:40:23.798Z,15.10
2019-05-29T08:42:52.129Z,15.10
2019-05-29T08:45:20.428Z,15.20
2019-05-29T08:47:49.733Z,15.20
2019-05-29T08:50:19.295Z,15.20
2019-05-29T08:52:48.117Z,15.20
2019-05-29T08:55:16.537Z,15.20
2019-05-29T08:57:46.236Z,15.20
2019-05-29T09:00:17.488Z,15.20
2019-05-29T09:02:46.616Z,15.30
2019-05-29T09:05:15.393Z,15.20
2019-05-29T09:07:45.889Z,15.30
2019-05-29T09:10:13.850Z,15.30
2019-05-29T09:12:45.895Z,15.30
2019-05-29T09:15:12.258Z,15.30
2019-05-29T09:17:40.545Z,15.30
2019-05-29T09:20:27.184Z,15.40
2019-05-29T09:22:39.769Z,15.40
2019-05-29T09:25:08.067Z,15.40
2019-05-29T09:27:36.417Z,15.40
2019-05-29T09:30:05.969Z,15.40
2019-05-29T09:32:49.451Z,15.40
2019-05-29T09:35:04.774Z,15.40
2019-05-29T09:37:33.176Z,15.50
2019-05-29T09:40:01.575Z,15.50
2019-05-29T09:42:29.930Z,15.50
2019-05-29T09:44:58.253Z,15.50
2019-05-29T09:47:26.556Z,15.50
2019-05-29T09:49:54.951Z,15.50
2019-05-29T09:52:23.310Z,15.50
2019-05-29T09:54:52.991Z,15.50
2019-05-29T09:57:21.792Z,15.60
2019-05-29T09:59:50.882Z,15.60
2019-05-29T10:02:19.199Z,15.60
2019-05-29T10:04:47.562Z,15.70
2019-05-29T10:07:15.951Z,15.70
2019-05-29T10:09:44.290Z,15.70
2019-05-29T10:12:12.624Z,15.70
2019-05-29T10:14:40.986Z,15.70
2019-05-29T10:17:12.587Z,15.80
2019-05-29T10:19:59.122Z,15.70
2019-05-29T10:22:27.483Z,15.80
2019-05-29T10:24:56.878Z,15.70
2019-05-29T10:27:25.887Z,15.70
2019-05-29T10:29:54.345Z,15.70
2019-05-29T10:32:22.631Z,15.80
2019-05-29T10:34:50.959Z,15.80
2019-05-29T10:37:19.254Z,15.80
2019-05-29T10:39:48.916Z,15.80
2019-05-29T10:42:20.475Z,15.80
2019-05-29T10:44:49.107Z,15.80
2019-05-29T10:47:17.461Z,15.90
2019-05-29T10:49:45.787Z,15.90
2019-05-29T10:52:17.249Z,15.90
2019-05-29T10:54:44.154Z,16.00
2019-05-29T10:57:12.553Z,16.00
2019-05-29T10:59:40.846Z,16.00
2019-05-29T11:02:09.188Z,16.00
2019-05-29T11:04:37.601Z,16.00
2019-05-29T11:07:06.096Z,16.00
2019-05-29T11:09:43.846Z,16.10
2019-05-29T11:12:04.673Z,16.10
2019-05-29T11:14:33.002Z,16.00
2019-05-29T11:17:01.330Z,16.00
2019-05-29T11:19:30.100Z,16.10
2019-05-29T11:22:04.580Z,16.10
2019-05-29T11:24:28.474Z,16.10
2019-05-29T11:26:56.840Z,16.10
2019-05-29T11:29:25.213Z,16.10
2019-05-29T11:31:54.976Z,16.10
2019-05-29T11:34:23.521Z,16.20
2019-05-29T11:36:51.986Z,16.30
2019-05-29T11:39:20.315Z,16.30
2019-05-29T11:41:48.630Z,16.30
2019-05-29T11:44:16.932Z,16.30
2019-05-29T11:46:45.315Z,16.30
2019-05-29T11:49:13.639Z,16.40
2019-05-29T11:51:44.410Z,16.30
2019-05-29T11:54:11.973Z,16.40
2019-05-29T11:56:40.305Z,16.40
2019-05-29T11:59:08.611Z,16.40
2019-05-29T12:01:49.724Z,16.40
2019-05-29T12:04:23.136Z,16.50
2019-05-29T12:06:37.057Z,16.50
2019-05-29T12:09:08.364Z,16.50
2019-05-29T12:11:36.696Z,16.60
2019-05-29T12:14:05.244Z,16.60
2019-05-29T12:16:33.929Z,16.60
2019-05-29T12:19:02.292Z,16.60
2019-05-29T12:21:30.791Z,16.60
2019-05-29T12:26:35.950Z,16.70
2019-05-29T12:29:10.998Z,16.70
2019-05-29T12:31:34.361Z,16.70
2019-05-29T12:34:13.013Z,16.70
2019-05-29T12:36:32.770Z,16.70
2019-05-29T12:39:02.218Z,16.80
2019-05-29T12:41:31.140Z,16.80
2019-05-29T12:43:59.576Z,17.00
2019-05-29T12:46:27.975Z,17.10
2019-05-29T12:48:57.438Z,16.90
2019-05-29T12:51:25.969Z,16.90
2019-05-29T12:53:54.279Z,16.90
2019-05-29T12:56:22.606Z,17.00
2019-05-29T12:58:51.018Z,16.90
2019-05-29T13:01:19.481Z,17.00
2019-05-29T13:03:47.801Z,17.00
2019-05-29T13:06:16.145Z,17.00
2019-05-29T13:08:44.485Z,17.10
2019-05-29T13:11:12.821Z,17.00
2019-05-29T13:13:41.183Z,17.10
2019-05-29T13:16:09.559Z,17.10
2019-05-29T13:18:37.944Z,17.30
2019-05-29T13:21:06.317Z,17.20
2019-05-29T13:23:44.814Z,17.30
2019-05-29T13:26:05.691Z,17.30
2019-05-29T13:32:06.991Z,17.30
2019-05-29T13:34:35.229Z,17.20
2019-05-29T13:37:07.083Z,17.30
2019-05-29T13:39:33.702Z,17.30
2019-05-29T13:42:08.593Z,17.30
2019-05-29T13:44:32.091Z,17.40
2019-05-29T13:47:01.843Z,17.50
2019-05-29T13:49:30.305Z,17.50
2019-05-29T13:51:59.154Z,17.60
2019-05-29T13:54:28.192Z,17.60
2019-05-29T13:56:58.990Z,17.70
2019-05-29T13:59:26.812Z,17.70
2019-05-29T14:01:55.213Z,17.70
2019-05-29T14:04:23.618Z,17.70
2019-05-29T14:06:53.021Z,17.90
2019-05-29T14:09:22.350Z,17.90
2019-05-29T14:11:54.243Z,18.00
2019-05-29T14:14:22.634Z,17.90
2019-05-29T14:16:51.138Z,18.00
2019-05-29T14:19:19.500Z,18.10
2019-05-29T14:21:48.374Z,18.00
2019-05-29T14:24:28.795Z,18.00
2019-05-29T14:26:46.874Z,18.00
2019-05-29T14:29:15.380Z,18.10
2019-05-29T14:31:43.770Z,18.20
2019-05-29T14:34:13.294Z,18.30
2019-05-29T14:36:41.815Z,18.30
2019-05-29T14:39:10.210Z,18.20
2019-05-29T14:41:38.948Z,18.30
2019-05-29T14:44:07.920Z,18.30
2019-05-29T14:46:36.355Z,18.30
2019-05-29T14:49:04.672Z,18.40
2019-05-29T14:51:33.011Z,18.40
2019-05-29T14:54:02.628Z,18.40
2019-05-29T14:56:31.322Z,18.50
2019-05-29T14:58:59.743Z,18.60
2019-05-29T15:01:28.138Z,18.60
2019-05-29T15:03:56.558Z,18.60
2019-05-29T15:06:24.879Z,18.60
2019-05-29T15:08:53.217Z,18.70
2019-05-29T15:11:21.521Z,18.60
2019-05-29T15:13:49.820Z,18.70
2019-05-29T15:16:18.287Z,18.70
2019-05-29T15:18:46.686Z,18.70
2019-05-29T15:21:15.351Z,18.80
2019-05-29T15:23:43.973Z,18.70
2019-05-29T15:26:12.360Z,18.80
2019-05-29T15:28:40.698Z,18.80
2019-05-29T15:31:10.335Z,18.80
2019-05-29T15:33:38.980Z,18.80
2019-05-29T15:36:08.561Z,18.90
2019-05-29T15:38:37.099Z,18.90
2019-05-29T15:41:06.539Z,18.90
2019-05-29T15:43:34.987Z,19.00
2019-05-29T15:46:03.509Z,19.00
2019-05-29T15:48:32.125Z,19.00
2019-05-29T15:51:00.476Z,19.00
2019-05-29T15:53:28.882Z,19.00
2019-05-29T15:55:57.245Z,19.00
2019-05-29T15:58:25.554Z,19.00
2019-05-29T16:00:53.896Z,19.10
2019-05-29T16:03:22.256Z,19.10
2019-05-29T16:05:50.983Z,19.10
2019-05-29T16:08:19.419Z,19.10
2019-05-29T16:14:21.935Z,19.10
2019-05-29T16:16:50.283Z,19.10
2019-05-29T16:19:18.637Z,19.10
2019-05-29T16:21:47.018Z,19.10
2019-05-29T16:24:16.721Z,19.10
2019-05-29T16:26:46.351Z,19.10
2019-05-29T16:29:16.399Z,19.20
2019-05-29T16:31:55.837Z,19.20
2019-05-29T16:34:24.282Z,19.20
2019-05-29T16:36:52.664Z,19.20
2019-05-29T16:39:22.558Z,19.20
2019-05-29T16:41:51.192Z,19.20
2019-05-29T16:44:24.351Z,19.30
2019-05-29T16:46:49.730Z,19.20
2019-05-29T16:49:18.716Z,19.20
2019-05-29T16:51:47.155Z,19.30
2019-05-29T16:54:17.063Z,19.20
2019-05-29T16:56:46.375Z,19.20
2019-05-29T16:59:14.944Z,19.20
2019-05-29T17:01:43.384Z,19.30
2019-05-29T17:04:17.644Z,19.30
2019-05-29T17:06:46.111Z,19.30
2019-05-29T17:09:14.589Z,19.30
2019-05-29T17:11:43.094Z,19.30
2019-05-29T17:14:11.648Z,19.30
2019-05-29T17:16:48.494Z,19.30
2019-05-29T17:19:16.828Z,19.30
2019-05-29T17:21:45.147Z,19.30
2019-05-29T17:24:14.687Z,19.30
2019-05-29T17:26:43.446Z,19.30
2019-05-29T17:29:11.872Z,19.30
2019-05-29T17:31:40.595Z,19.30
2019-05-29T17:34:09.073Z,19.30
2019-05-29T17:36:37.488Z,19.30
2019-05-29T17:39:15.159Z,19.30
2019-05-29T17:41:42.749Z,19.30
2019-05-29T17:44:11.209Z,19.30
2019-05-29T17:46:39.600Z,19.30
2019-05-29T17:49:07.928Z,19.30
2019-05-29T17:51:36.685Z,19.30
2019-05-29T17:54:05.120Z,19.30
2019-05-29T17:56:36.568Z,19.30
2019-05-29T17:59:07.328Z,19.30
2019-05-29T18:01:35.723Z,19.30
2019-05-29T18:04:04.067Z,19.30
2019-05-29T18:06:32.420Z,19.30
2019-05-29T18:09:00.796Z,19.30
2019-05-29T18:11:29.178Z,19.30
2019-05-29T18:13:57.526Z,19.30
2019-05-29T18:16:25.892Z,19.30
2019-05-29T18:18:54.236Z,19.30
2019-05-29T18:21:23.604Z,19.20
2019-05-29T18:23:53.631Z,19.30
2019-05-29T18:26:22.499Z,19.30
2019-05-29T18:28:50.928Z,19.30
2019-05-29T18:31:20.349Z,19.30
2019-05-29T18:33:48.812Z,19.20
2019-05-29T18:36:17.259Z,19.30
2019-05-29T18:38:45.687Z,19.20
2019-05-29T18:41:14.051Z,19.20
2019-05-29T18:43:42.395Z,19.20
2019-05-29T18:46:10.797Z,19.20
2019-05-29T18:48:39.171Z,19.20
2019-05-29T18:51:36.063Z,19.20
2019-05-29T18:57:45.771Z,19.30
2019-05-29T19:00:27.495Z,19.30
2019-05-29T19:09:46.625Z,19.30
2019-05-29T19:12:14.980Z,19.30
2019-05-29T19:14:43.281Z,19.30
2019-05-29T19:17:16.309Z,19.30
2019-05-29T19:19:44.695Z,19.20
2019-05-29T19:22:13.303Z,19.20
2019-05-29T19:24:47.034Z,19.20
2019-05-29T19:27:30.166Z,19.30
2019-05-29T19:29:47.901Z,19.30
2019-05-29T19:32:16.304Z,19.20
2019-05-29T19:34:44.651Z,19.20
2019-05-29T19:37:13.019Z,19.20
2019-05-29T19:39:41.659Z,19.20
2019-05-29T19:42:10.057Z,19.20
2019-05-29T19:44:38.429Z,19.20
2019-05-29T19:47:06.853Z,19.20
2019-05-29T19:49:35.352Z,19.20
2019-05-29T19:52:05.565Z,19.20
2019-05-29T19:54:33.971Z,19.20
2019-05-29T19:57:52.410Z,19.10
2019-05-29T20:00:08.622Z,19.10
2019-05-29T20:02:36.994Z,19.10
2019-05-29T20:05:15.244Z,19.10
2019-05-29T20:07:44.548Z,19.00
2019-05-29T20:10:12.905Z,19.00
2019-05-29T20:15:20.742Z,19.00
2019-05-29T20:17:49.448Z,19.00
2019-05-29T20:20:18.351Z,19.00
2019-05-29T20:22:47.226Z,19.00
2019-05-29T20:25:16.968Z,19.00
2019-05-29T20:27:45.714Z,19.00
2019-05-29T20:30:18.036Z,19.00
2019-05-29T20:32:47.202Z,19.00
2019-05-29T20:35:16.460Z,19.00
2019-05-29T20:37:48.673Z,19.00
2019-05-29T20:40:17.178Z,19.00
2019-05-29T20:42:45.548Z,19.00
2019-05-29T20:45:14.824Z,18.90
2019-05-29T20:47:43.188Z,19.00
2019-05-29T20:50:11.557Z,18.90
2019-05-29T20:52:39.924Z,18.90
2019-05-29T20:55:08.929Z,18.90
2019-05-29T20:57:38.022Z,18.90
2019-05-29T21:00:13.008Z,18.90
2019-05-29T21:02:42.493Z,18.80
2019-05-29T21:05:11.155Z,18.80
2019-05-29T21:07:40.841Z,18.80
2019-05-29T21:10:09.593Z,18.80
2019-05-29T21:12:41.907Z,18.80
2019-05-29T21:15:08.021Z,18.80
2019-05-29T21:17:37.755Z,18.80
2019-05-29T21:20:07.707Z,18.80
2019-05-29T21:22:36.515Z,18.80
2019-05-29T21:25:12.352Z,18.80
2019-05-29T21:27:41.942Z,18.70
2019-05-29T21:30:08.549Z,18.70
2019-05-29T21:32:37.840Z,18.80
2019-05-29T21:35:09.191Z,18.80
2019-05-29T21:37:38.240Z,18.80
2019-05-29T21:40:06.962Z,18.80
2019-05-29T21:42:36.538Z,18.80
2019-05-29T21:45:08.514Z,18.80
2019-05-29T21:47:37.177Z,18.80
2019-05-29T21:50:06.707Z,18.70
2019-05-29T21:52:35.137Z,18.70
2019-05-29T21:55:04.728Z,18.70
2019-05-29T21:57:33.037Z,18.70
2019-05-29T22:00:01.399Z,18.70
2019-05-29T22:02:29.714Z,18.70
2019-05-29T22:04:58.037Z,18.70
2019-05-29T22:07:26.375Z,18.60
2019-05-29T22:09:54.700Z,18.60
2019-05-29T22:12:23.027Z,18.60
2019-05-29T22:14:52.887Z,18.60
2019-05-29T22:17:21.601Z,18.60
2019-05-29T22:19:50.748Z,18.50
2019-05-29T22:22:19.243Z,18.60
2019-05-29T22:24:47.543Z,18.50
2019-05-29T22:27:15.870Z,18.60
2019-05-29T22:29:44.247Z,18.50
2019-05-29T22:32:12.599Z,18.50
2019-05-29T22:34:40.953Z,18.50
2019-05-29T22:37:09.627Z,18.50
2019-05-29T22:39:38.037Z,18.50
2019-05-29T22:42:06.357Z,18.50
2019-05-29T22:44:34.756Z,18.50
2019-05-29T22:47:03.183Z,18.50
2019-05-29T22:49:31.981Z,18.50
2019-05-29T22:52:00.418Z,18.50
2019-05-29T22:54:28.783Z,18.50
2019-05-29T22:56:57.979Z,18.50
2019-05-29T22:59:31.881Z,18.50
2019-05-29T23:01:56.476Z,18.50
2019-05-29T23:04:24.857Z,18.50
2019-05-29T23:06:54.205Z,18.50
2019-05-29T23:09:22.824Z,18.50
2019-05-29T23:11:52.174Z,18.50
2019-05-29T23:14:20.906Z,18.40
2019-05-29T23:16:49.229Z,18.40
2019-05-29T23:19:17.618Z,18.40
2019-05-29T23:21:46.235Z,18.40
2019-05-29T23:24:14.700Z,18.40
2019-05-29T23:26:43.089Z,18.40
2019-05-29T23:29:11.854Z,18.40
2019-05-29T23:31:40.336Z,18.30
2019-05-29T23:34:08.669Z,18.40
2019-05-29T23:36:37.123Z,18.40
2019-05-29T23:39:06.483Z,18.40
2019-05-29T23:41:34.993Z,18.30
2019-05-29T23:44:04.340Z,18.40
2019-05-29T23:46:32.679Z,18.30
2019-05-29T23:49:01.866Z,18.40
2019-05-29T23:51:30.334Z,18.40
2019-05-29T23:53:59.745Z,18.30
2019-05-29T23:56:28.226Z,18.20
2019-05-29T23:58:57.574Z,18.30
